sensor_id;sensor_type;location;lat;lon;timestamp;temperature;humidity
17053;DHT22;8643;48.824;11.422;2023-02-26T00:00:27;-1.40;99.90
17053;DHT22;8643;48.824;11.422;2023-02-26T00:02:55;-1.40;99.90
17053;DHT22;8643;48.824;11.422;2023-02-26T00:05:25;-1.50;99.90
17053;DHT22;8643;48.824;11.422;2023-02-26T00:07:54;-1.50;99.90
17053;DHT22;8643;48.824;11.422;2023-02-26T00:10:22;-1.60;99.90
17053;DHT22;8643;48.824;11.422;2023-02-26T00:12:51;-1.60;99.90
17053;DHT22;8643;48.824;11.422;2023-02-26T00:15:21;-1.20;99.90
17053;DHT22;8643;48.824;11.422;2023-02-26T00:17:54;-1.70;99.90
17053;DHT22;8643;48.824;11.422;2023-02-26T00:20:30;-1.80;99.90
17053;DHT22;8643;48.824;11.422;2023-02-26T00:22:59;-1.90;99.90
17053;DHT22;8643;48.824;11.422;2023-02-26T00:25:28;-1.90;99.90
17053;DHT22;8643;48.824;11.422;2023-02-26T00:27:57;-2.00;99.90
17053;DHT22;8643;48.824;11.422;2023-02-26T00:30:27;-2.00;99.90
17053;DHT22;8643;48.824;11.422;2023-02-26T00:32:56;-1.60;99.90
17053;DHT22;8643;48.824;11.422;2023-02-26T00:35:26;-2.20;99.90
17053;DHT22;8643;48.824;11.422;2023-02-26T00:38:00;-2.20;99.90
17053;DHT22;8643;48.824;11.422;2023-02-26T00:40:37;-2.20;99.90
17053;DHT22;8643;48.824;11.422;2023-02-26T00:43:14;-2.20;99.90
17053;DHT22;8643;48.824;11.422;2023-02-26T00:45:52;-2.20;99.90
17053;DHT22;8643;48.824;11.422;2023-02-26T00:48:37;-2.20;99.90
17053;DHT22;8643;48.824;11.422;2023-02-26T00:51:20;-2.20;99.90
17053;DHT22;8643;48.824;11.422;2023-02-26T00:54:01;-2.10;99.90
17053;DHT22;8643;48.824;11.422;2023-02-26T00:56:34;-0.40;99.90
17053;DHT22;8643;48.824;11.422;2023-02-26T00:59:03;-2.10;99.90
17053;DHT22;8643;48.824;11.422;2023-02-26T01:01:31;-2.60;99.90
17053;DHT22;8643;48.824;11.422;2023-02-26T01:04:00;-2.00;99.90
17053;DHT22;8643;48.824;11.422;2023-02-26T01:06:32;-2.10;99.90
17053;DHT22;8643;48.824;11.422;2023-02-26T01:09:09;-2.00;99.90
17053;DHT22;8643;48.824;11.422;2023-02-26T01:11:43;-2.00;99.90
17053;DHT22;8643;48.824;11.422;2023-02-26T01:14:12;-2.00;99.90
17053;DHT22;8643;48.824;11.422;2023-02-26T01:16:49;-2.10;99.90
17053;DHT22;8643;48.824;11.422;2023-02-26T01:19:26;-2.20;99.90
17053;DHT22;8643;48.824;11.422;2023-02-26T01:22:04;-2.20;99.90
17053;DHT22;8643;48.824;11.422;2023-02-26T01:24:39;-2.20;99.90
17053;DHT22;8643;48.824;11.422;2023-02-26T01:27:08;-2.20;99.90
17053;DHT22;8643;48.824;11.422;2023-02-26T01:32:10;-2.10;99.90
17053;DHT22;8643;48.824;11.422;2023-02-26T01:34:52;-2.10;99.90
17053;DHT22;8643;48.824;11.422;2023-02-26T01:37:30;-2.10;99.90
17053;DHT22;8643;48.824;11.422;2023-02-26T01:40:33;-2.10;99.90
17053;DHT22;8643;48.824;11.422;2023-02-26T01:43:17;-2.20;99.90
17053;DHT22;8643;48.824;11.422;2023-02-26T01:45:57;-2.10;99.90
17053;DHT22;8643;48.824;11.422;2023-02-26T01:48:36;-2.10;99.90
17053;DHT22;8643;48.824;11.422;2023-02-26T01:51:10;-2.20;99.90
17053;DHT22;8643;48.824;11.422;2023-02-26T01:53:38;-2.10;99.90
17053;DHT22;8643;48.824;11.422;2023-02-26T01:56:14;-2.20;99.90
17053;DHT22;8643;48.824;11.422;2023-02-26T01:58:46;-2.20;99.90
17053;DHT22;8643;48.824;11.422;2023-02-26T02:03:45;-2.30;99.90
17053;DHT22;8643;48.824;11.422;2023-02-26T02:06:17;-2.30;99.90
17053;DHT22;8643;48.824;11.422;2023-02-26T02:08:50;-2.40;99.90
17053;DHT22;8643;48.824;11.422;2023-02-26T02:11:20;-2.50;99.90
17053;DHT22;8643;48.824;11.422;2023-02-26T02:14:00;-2.50;99.90
17053;DHT22;8643;48.824;11.422;2023-02-26T02:16:44;-2.60;99.90
17053;DHT22;8643;48.824;11.422;2023-02-26T02:19:33;-2.50;99.90
17053;DHT22;8643;48.824;11.422;2023-02-26T02:25:42;-2.60;99.90
17053;DHT22;8643;48.824;11.422;2023-02-26T02:28:36;-2.80;99.90
17053;DHT22;8643;48.824;11.422;2023-02-26T02:31:16;-2.70;99.90
17053;DHT22;8643;48.824;11.422;2023-02-26T02:33:51;-2.70;99.90
17053;DHT22;8643;48.824;11.422;2023-02-26T02:36:30;-2.70;99.90
17053;DHT22;8643;48.824;11.422;2023-02-26T02:39:05;-2.80;99.90
17053;DHT22;8643;48.824;11.422;2023-02-26T02:41:41;-2.80;99.90
17053;DHT22;8643;48.824;11.422;2023-02-26T02:44:16;-2.80;99.90
17053;DHT22;8643;48.824;11.422;2023-02-26T02:46:49;-2.90;99.90
17053;DHT22;8643;48.824;11.422;2023-02-26T02:49:24;-2.70;99.90
17053;DHT22;8643;48.824;11.422;2023-02-26T02:52:01;-3.20;99.90
17053;DHT22;8643;48.824;11.422;2023-02-26T02:54:39;-3.30;99.90
17053;DHT22;8643;48.824;11.422;2023-02-26T02:57:18;-3.30;99.90
17053;DHT22;8643;48.824;11.422;2023-02-26T02:59:53;-3.30;99.90
17053;DHT22;8643;48.824;11.422;2023-02-26T03:02:31;-3.30;99.90
17053;DHT22;8643;48.824;11.422;2023-02-26T03:05:05;-3.20;99.90
17053;DHT22;8643;48.824;11.422;2023-02-26T03:07:40;-3.20;99.90
17053;DHT22;8643;48.824;11.422;2023-02-26T03:10:14;-3.80;99.90
17053;DHT22;8643;48.824;11.422;2023-02-26T03:12:44;-3.30;99.90
17053;DHT22;8643;48.824;11.422;2023-02-26T03:15:13;-3.20;99.90
17053;DHT22;8643;48.824;11.422;2023-02-26T03:17:56;-3.30;99.90
17053;DHT22;8643;48.824;11.422;2023-02-26T03:20:40;-3.30;99.90
17053;DHT22;8643;48.824;11.422;2023-02-26T03:23:22;-3.20;99.90
17053;DHT22;8643;48.824;11.422;2023-02-26T03:26:02;-3.20;99.90
17053;DHT22;8643;48.824;11.422;2023-02-26T03:28:42;-3.20;99.90
17053;DHT22;8643;48.824;11.422;2023-02-26T03:31:18;-2.10;99.90
17053;DHT22;8643;48.824;11.422;2023-02-26T03:33:58;-3.30;99.90
17053;DHT22;8643;48.824;11.422;2023-02-26T03:36:35;-3.40;99.90
17053;DHT22;8643;48.824;11.422;2023-02-26T03:39:21;-3.40;99.90
17053;DHT22;8643;48.824;11.422;2023-02-26T03:41:57;-3.60;99.90
17053;DHT22;8643;48.824;11.422;2023-02-26T03:44:38;-3.50;99.90
17053;DHT22;8643;48.824;11.422;2023-02-26T03:47:14;-3.70;99.90
17053;DHT22;8643;48.824;11.422;2023-02-26T03:49:49;-3.70;99.90
17053;DHT22;8643;48.824;11.422;2023-02-26T03:52:25;-3.70;99.90
17053;DHT22;8643;48.824;11.422;2023-02-26T03:55:23;-3.00;99.90
17053;DHT22;8643;48.824;11.422;2023-02-26T03:58:06;-3.70;99.90
17053;DHT22;8643;48.824;11.422;2023-02-26T04:00:44;-3.70;99.90
17053;DHT22;8643;48.824;11.422;2023-02-26T04:03:20;-2.80;99.90
17053;DHT22;8643;48.824;11.422;2023-02-26T04:05:57;-3.80;99.90
17053;DHT22;8643;48.824;11.422;2023-02-26T04:08:29;-3.70;99.90
17053;DHT22;8643;48.824;11.422;2023-02-26T04:11:02;-3.70;99.90
17053;DHT22;8643;48.824;11.422;2023-02-26T04:13:35;-3.80;99.90
17053;DHT22;8643;48.824;11.422;2023-02-26T04:16:04;-3.70;99.90
17053;DHT22;8643;48.824;11.422;2023-02-26T04:18:33;-4.20;99.90
17053;DHT22;8643;48.824;11.422;2023-02-26T04:21:05;-3.80;99.90
17053;DHT22;8643;48.824;11.422;2023-02-26T04:23:34;-3.70;99.90
17053;DHT22;8643;48.824;11.422;2023-02-26T04:26:03;-3.70;99.90
17053;DHT22;8643;48.824;11.422;2023-02-26T04:28:35;-3.70;99.90
17053;DHT22;8643;48.824;11.422;2023-02-26T04:31:04;-3.80;99.90
17053;DHT22;8643;48.824;11.422;2023-02-26T04:33:35;-3.70;99.90
17053;DHT22;8643;48.824;11.422;2023-02-26T04:36:07;-3.70;99.90
17053;DHT22;8643;48.824;11.422;2023-02-26T04:38:36;-3.70;99.90
17053;DHT22;8643;48.824;11.422;2023-02-26T04:41:05;-3.60;99.90
17053;DHT22;8643;48.824;11.422;2023-02-26T04:43:34;-3.60;99.90
17053;DHT22;8643;48.824;11.422;2023-02-26T04:48:48;-3.60;99.90
17053;DHT22;8643;48.824;11.422;2023-02-26T04:51:18;-3.60;99.90
17053;DHT22;8643;48.824;11.422;2023-02-26T05:01:23;-3.60;99.90
17053;DHT22;8643;48.824;11.422;2023-02-26T05:06:21;-3.60;99.90
17053;DHT22;8643;48.824;11.422;2023-02-26T05:08:51;-3.70;99.90
17053;DHT22;8643;48.824;11.422;2023-02-26T05:11:21;-3.70;99.90
17053;DHT22;8643;48.824;11.422;2023-02-26T05:16:18;-3.80;99.90
17053;DHT22;8643;48.824;11.422;2023-02-26T05:23:50;-3.80;99.90
17053;DHT22;8643;48.824;11.422;2023-02-26T05:26:18;-2.60;99.90
17053;DHT22;8643;48.824;11.422;2023-02-26T05:28:47;-3.80;99.90
17053;DHT22;8643;48.824;11.422;2023-02-26T05:31:15;-4.60;99.90
17053;DHT22;8643;48.824;11.422;2023-02-26T05:33:44;-3.80;99.90
17053;DHT22;8643;48.824;11.422;2023-02-26T05:36:13;-3.70;99.90
17053;DHT22;8643;48.824;11.422;2023-02-26T05:38:41;-3.60;99.90
17053;DHT22;8643;48.824;11.422;2023-02-26T05:41:11;-3.60;99.90
17053;DHT22;8643;48.824;11.422;2023-02-26T05:43:40;-2.40;99.90
17053;DHT22;8643;48.824;11.422;2023-02-26T05:46:08;-3.50;99.90
17053;DHT22;8643;48.824;11.422;2023-02-26T05:48:37;-3.40;99.90
17053;DHT22;8643;48.824;11.422;2023-02-26T05:51:05;-3.40;99.90
17053;DHT22;8643;48.824;11.422;2023-02-26T05:53:34;-3.50;99.90
17053;DHT22;8643;48.824;11.422;2023-02-26T05:56:02;-2.60;99.90
17053;DHT22;8643;48.824;11.422;2023-02-26T05:58:33;-3.40;99.90
17053;DHT22;8643;48.824;11.422;2023-02-26T06:01:01;-3.40;99.90
17053;DHT22;8643;48.824;11.422;2023-02-26T06:03:30;-3.40;99.90
17053;DHT22;8643;48.824;11.422;2023-02-26T06:08:27;-3.40;99.90
17053;DHT22;8643;48.824;11.422;2023-02-26T06:10:56;-2.90;99.90
17053;DHT22;8643;48.824;11.422;2023-02-26T06:13:24;-3.40;99.90
17053;DHT22;8643;48.824;11.422;2023-02-26T06:15:54;-3.40;99.90
17053;DHT22;8643;48.824;11.422;2023-02-26T06:18:22;-3.30;99.90
17053;DHT22;8643;48.824;11.422;2023-02-26T06:20:54;-3.30;99.90
17053;DHT22;8643;48.824;11.422;2023-02-26T06:23:22;-3.20;99.90
17053;DHT22;8643;48.824;11.422;2023-02-26T06:25:52;-3.10;99.90
17053;DHT22;8643;48.824;11.422;2023-02-26T06:28:21;-3.50;99.90
17053;DHT22;8643;48.824;11.422;2023-02-26T06:30:51;-2.90;99.90
17053;DHT22;8643;48.824;11.422;2023-02-26T06:33:22;-2.90;99.90
17053;DHT22;8643;48.824;11.422;2023-02-26T06:35:51;-2.90;99.90
17053;DHT22;8643;48.824;11.422;2023-02-26T06:38:19;-2.90;99.90
17053;DHT22;8643;48.824;11.422;2023-02-26T06:43:17;-2.80;99.90
17053;DHT22;8643;48.824;11.422;2023-02-26T06:45:45;-2.80;99.90
17053;DHT22;8643;48.824;11.422;2023-02-26T06:48:14;-2.70;99.90
17053;DHT22;8643;48.824;11.422;2023-02-26T06:50:44;-2.70;99.90
17053;DHT22;8643;48.824;11.422;2023-02-26T06:53:12;-2.70;99.90
17053;DHT22;8643;48.824;11.422;2023-02-26T06:55:43;-2.70;99.90
17053;DHT22;8643;48.824;11.422;2023-02-26T06:58:12;-2.60;99.90
17053;DHT22;8643;48.824;11.422;2023-02-26T07:00:41;-2.90;99.90
17053;DHT22;8643;48.824;11.422;2023-02-26T07:03:11;-2.50;99.90
17053;DHT22;8643;48.824;11.422;2023-02-26T07:05:41;-2.40;99.90
17053;DHT22;8643;48.824;11.422;2023-02-26T07:08:13;-2.30;99.90
17053;DHT22;8643;48.824;11.422;2023-02-26T07:10:42;-2.20;99.90
17053;DHT22;8643;48.824;11.422;2023-02-26T07:13:12;-2.10;99.90
17053;DHT22;8643;48.824;11.422;2023-02-26T07:15:41;-2.10;99.90
17053;DHT22;8643;48.824;11.422;2023-02-26T07:18:12;-2.00;99.90
17053;DHT22;8643;48.824;11.422;2023-02-26T07:20:40;-2.00;99.90
17053;DHT22;8643;48.824;11.422;2023-02-26T07:23:11;-2.00;99.90
17053;DHT22;8643;48.824;11.422;2023-02-26T07:25:39;-2.10;99.90
17053;DHT22;8643;48.824;11.422;2023-02-26T07:28:08;-2.00;99.90
17053;DHT22;8643;48.824;11.422;2023-02-26T07:30:36;-1.90;99.90
17053;DHT22;8643;48.824;11.422;2023-02-26T07:33:08;-1.80;99.90
17053;DHT22;8643;48.824;11.422;2023-02-26T07:35:39;-1.60;99.90
17053;DHT22;8643;48.824;11.422;2023-02-26T07:40:38;-1.30;99.90
17053;DHT22;8643;48.824;11.422;2023-02-26T07:43:06;-1.30;99.90
17053;DHT22;8643;48.824;11.422;2023-02-26T07:45:35;-1.20;99.90
17053;DHT22;8643;48.824;11.422;2023-02-26T07:48:03;-1.20;99.90
17053;DHT22;8643;48.824;11.422;2023-02-26T07:50:32;-1.20;99.90
17053;DHT22;8643;48.824;11.422;2023-02-26T07:53:00;-1.20;99.90
17053;DHT22;8643;48.824;11.422;2023-02-26T07:55:30;-1.30;99.90
17053;DHT22;8643;48.824;11.422;2023-02-26T07:57:59;-1.30;99.90
17053;DHT22;8643;48.824;11.422;2023-02-26T08:00:27;-0.80;99.90
17053;DHT22;8643;48.824;11.422;2023-02-26T08:02:55;0.00;99.90
17053;DHT22;8643;48.824;11.422;2023-02-26T08:05:24;0.80;99.90
17053;DHT22;8643;48.824;11.422;2023-02-26T08:07:55;1.20;99.90
17053;DHT22;8643;48.824;11.422;2023-02-26T08:10:24;1.70;99.90
17053;DHT22;8643;48.824;11.422;2023-02-26T08:12:54;2.00;99.90
17053;DHT22;8643;48.824;11.422;2023-02-26T08:15:22;2.20;99.90
17053;DHT22;8643;48.824;11.422;2023-02-26T08:17:51;2.50;99.90
17053;DHT22;8643;48.824;11.422;2023-02-26T08:20:20;2.40;99.90
17053;DHT22;8643;48.824;11.422;2023-02-26T08:22:49;2.50;99.90
17053;DHT22;8643;48.824;11.422;2023-02-26T08:25:18;2.50;99.90
17053;DHT22;8643;48.824;11.422;2023-02-26T08:27:46;2.50;99.90
17053;DHT22;8643;48.824;11.422;2023-02-26T08:30:16;1.20;99.90
17053;DHT22;8643;48.824;11.422;2023-02-26T08:35:17;3.20;99.90
17053;DHT22;8643;48.824;11.422;2023-02-26T08:37:46;3.30;99.90
17053;DHT22;8643;48.824;11.422;2023-02-26T08:40:14;3.40;99.90
17053;DHT22;8643;48.824;11.422;2023-02-26T08:42:44;4.50;99.90
17053;DHT22;8643;48.824;11.422;2023-02-26T08:45:12;3.70;99.90
17053;DHT22;8643;48.824;11.422;2023-02-26T08:47:42;3.10;99.90
17053;DHT22;8643;48.824;11.422;2023-02-26T08:50:23;2.40;99.90
17053;DHT22;8643;48.824;11.422;2023-02-26T08:52:52;2.80;99.90
17053;DHT22;8643;48.824;11.422;2023-02-26T08:55:21;1.80;99.90
17053;DHT22;8643;48.824;11.422;2023-02-26T09:00:20;0.90;99.90
17053;DHT22;8643;48.824;11.422;2023-02-26T09:02:50;0.90;99.90
17053;DHT22;8643;48.824;11.422;2023-02-26T09:05:19;1.40;99.90
17053;DHT22;8643;48.824;11.422;2023-02-26T09:07:47;1.30;99.90
17053;DHT22;8643;48.824;11.422;2023-02-26T09:10:16;1.40;99.90
17053;DHT22;8643;48.824;11.422;2023-02-26T09:12:49;1.60;99.90
17053;DHT22;8643;48.824;11.422;2023-02-26T09:15:17;1.60;99.90
17053;DHT22;8643;48.824;11.422;2023-02-26T09:17:47;2.20;99.90
17053;DHT22;8643;48.824;11.422;2023-02-26T09:20:19;2.60;99.90
17053;DHT22;8643;48.824;11.422;2023-02-26T09:22:47;3.60;99.90
17053;DHT22;8643;48.824;11.422;2023-02-26T09:25:16;3.50;99.90
17053;DHT22;8643;48.824;11.422;2023-02-26T09:27:44;3.50;99.90
17053;DHT22;8643;48.824;11.422;2023-02-26T09:30:13;3.60;99.90
17053;DHT22;8643;48.824;11.422;2023-02-26T09:32:42;3.50;99.90
17053;DHT22;8643;48.824;11.422;2023-02-26T09:35:11;3.70;99.90
17053;DHT22;8643;48.824;11.422;2023-02-26T09:37:40;2.80;99.90
17053;DHT22;8643;48.824;11.422;2023-02-26T09:40:16;2.50;99.90
17053;DHT22;8643;48.824;11.422;2023-02-26T09:46:03;1.80;99.90
17053;DHT22;8643;48.824;11.422;2023-02-26T09:48:36;1.60;99.90
17053;DHT22;8643;48.824;11.422;2023-02-26T09:51:10;1.50;99.90
17053;DHT22;8643;48.824;11.422;2023-02-26T09:53:51;1.40;99.90
17053;DHT22;8643;48.824;11.422;2023-02-26T09:56:23;1.40;99.90
17053;DHT22;8643;48.824;11.422;2023-02-26T10:01:30;1.30;99.90
17053;DHT22;8643;48.824;11.422;2023-02-26T10:04:12;1.30;99.90
17053;DHT22;8643;48.824;11.422;2023-02-26T10:06:57;1.30;99.90
17053;DHT22;8643;48.824;11.422;2023-02-26T10:09:46;1.30;99.90
17053;DHT22;8643;48.824;11.422;2023-02-26T10:12:23;1.40;99.90
17053;DHT22;8643;48.824;11.422;2023-02-26T10:14:57;1.70;99.90
17053;DHT22;8643;48.824;11.422;2023-02-26T10:17:32;2.80;99.90
17053;DHT22;8643;48.824;11.422;2023-02-26T10:20:10;4.00;99.90
17053;DHT22;8643;48.824;11.422;2023-02-26T10:22:50;4.30;99.90
17053;DHT22;8643;48.824;11.422;2023-02-26T10:25:32;4.20;99.90
17053;DHT22;8643;48.824;11.422;2023-02-26T10:28:16;3.80;99.90
17053;DHT22;8643;48.824;11.422;2023-02-26T10:30:59;4.00;99.90
17053;DHT22;8643;48.824;11.422;2023-02-26T10:33:37;4.80;98.40
17053;DHT22;8643;48.824;11.422;2023-02-26T10:36:18;5.40;99.90
17053;DHT22;8643;48.824;11.422;2023-02-26T10:38:55;6.20;96.00
17053;DHT22;8643;48.824;11.422;2023-02-26T10:41:33;6.60;93.00
17053;DHT22;8643;48.824;11.422;2023-02-26T10:44:12;7.60;92.30
17053;DHT22;8643;48.824;11.422;2023-02-26T10:46:51;7.80;91.00
17053;DHT22;8643;48.824;11.422;2023-02-26T10:49:46;7.10;90.60
17053;DHT22;8643;48.824;11.422;2023-02-26T10:52:24;6.30;95.10
17053;DHT22;8643;48.824;11.422;2023-02-26T10:55:15;4.80;93.70
17053;DHT22;8643;48.824;11.422;2023-02-26T10:58:02;4.00;98.80
17053;DHT22;8643;48.824;11.422;2023-02-26T11:00:33;3.50;98.60
17053;DHT22;8643;48.824;11.422;2023-02-26T11:03:07;3.00;97.50
17053;DHT22;8643;48.824;11.422;2023-02-26T11:05:40;2.60;99.90
17053;DHT22;8643;48.824;11.422;2023-02-26T11:08:12;2.30;99.90
17053;DHT22;8643;48.824;11.422;2023-02-26T11:10:49;2.30;99.90
17053;DHT22;8643;48.824;11.422;2023-02-26T11:13:22;2.20;99.90
17053;DHT22;8643;48.824;11.422;2023-02-26T11:15:54;2.20;99.90
17053;DHT22;8643;48.824;11.422;2023-02-26T11:18:27;2.00;99.90
17053;DHT22;8643;48.824;11.422;2023-02-26T11:20:59;1.90;99.90
17053;DHT22;8643;48.824;11.422;2023-02-26T11:23:30;1.80;99.90
17053;DHT22;8643;48.824;11.422;2023-02-26T11:26:05;1.90;99.90
17053;DHT22;8643;48.824;11.422;2023-02-26T11:28:42;2.10;99.90
17053;DHT22;8643;48.824;11.422;2023-02-26T11:31:16;2.30;99.90
17053;DHT22;8643;48.824;11.422;2023-02-26T11:33:49;2.50;99.90
17053;DHT22;8643;48.824;11.422;2023-02-26T11:36:23;2.50;99.90
17053;DHT22;8643;48.824;11.422;2023-02-26T11:38:57;2.50;99.90
17053;DHT22;8643;48.824;11.422;2023-02-26T11:41:34;2.30;99.90
17053;DHT22;8643;48.824;11.422;2023-02-26T11:44:10;2.30;99.90
17053;DHT22;8643;48.824;11.422;2023-02-26T11:46:49;2.30;99.90
17053;DHT22;8643;48.824;11.422;2023-02-26T11:49:22;2.30;99.90
17053;DHT22;8643;48.824;11.422;2023-02-26T11:52:15;2.30;99.90
17053;DHT22;8643;48.824;11.422;2023-02-26T11:54:49;2.80;99.90
17053;DHT22;8643;48.824;11.422;2023-02-26T11:57:23;2.20;99.90
17053;DHT22;8643;48.824;11.422;2023-02-26T11:59:57;2.10;99.90
17053;DHT22;8643;48.824;11.422;2023-02-26T12:02:32;2.10;99.90
17053;DHT22;8643;48.824;11.422;2023-02-26T12:05:05;2.70;99.90
17053;DHT22;8643;48.824;11.422;2023-02-26T12:07:34;2.10;99.90
17053;DHT22;8643;48.824;11.422;2023-02-26T12:10:12;2.90;99.90
17053;DHT22;8643;48.824;11.422;2023-02-26T12:13:04;3.90;99.90
17053;DHT22;8643;48.824;11.422;2023-02-26T12:15:50;4.40;99.90
17053;DHT22;8643;48.824;11.422;2023-02-26T12:18:41;5.20;99.90
17053;DHT22;8643;48.824;11.422;2023-02-26T12:21:42;5.70;99.90
17053;DHT22;8643;48.824;11.422;2023-02-26T12:24:53;6.10;99.90
17053;DHT22;8643;48.824;11.422;2023-02-26T12:27:41;5.90;99.60
17053;DHT22;8643;48.824;11.422;2023-02-26T12:30:34;5.30;96.00
17053;DHT22;8643;48.824;11.422;2023-02-26T12:33:25;4.70;99.80
17053;DHT22;8643;48.824;11.422;2023-02-26T12:36:15;3.90;98.60
17053;DHT22;8643;48.824;11.422;2023-02-26T12:39:05;4.60;99.70
17053;DHT22;8643;48.824;11.422;2023-02-26T12:42:00;4.30;95.20
17053;DHT22;8643;48.824;11.422;2023-02-26T12:44:57;3.70;96.60
17053;DHT22;8643;48.824;11.422;2023-02-26T12:47:55;3.70;95.90
17053;DHT22;8643;48.824;11.422;2023-02-26T12:50:47;3.70;96.10
17053;DHT22;8643;48.824;11.422;2023-02-26T12:56:55;4.60;96.50
17053;DHT22;8643;48.824;11.422;2023-02-26T12:59:52;4.20;96.30
17053;DHT22;8643;48.824;11.422;2023-02-26T13:06:44;4.20;97.80
17053;DHT22;8643;48.824;11.422;2023-02-26T13:09:33;3.80;96.10
17053;DHT22;8643;48.824;11.422;2023-02-26T13:12:28;3.20;95.90
17053;DHT22;8643;48.824;11.422;2023-02-26T13:15:14;2.90;98.00
17053;DHT22;8643;48.824;11.422;2023-02-26T13:17:57;2.70;99.90
17053;DHT22;8643;48.824;11.422;2023-02-26T13:20:34;2.60;97.50
17053;DHT22;8643;48.824;11.422;2023-02-26T13:23:12;2.70;99.90
17053;DHT22;8643;48.824;11.422;2023-02-26T13:25:48;3.10;99.90
17053;DHT22;8643;48.824;11.422;2023-02-26T13:28:25;3.50;99.90
17053;DHT22;8643;48.824;11.422;2023-02-26T13:31:15;4.20;99.90
17053;DHT22;8643;48.824;11.422;2023-02-26T13:33:48;4.60;93.90
17053;DHT22;8643;48.824;11.422;2023-02-26T13:36:20;4.50;94.00
17053;DHT22;8643;48.824;11.422;2023-02-26T13:39:02;4.60;91.90
17053;DHT22;8643;48.824;11.422;2023-02-26T13:41:52;4.50;91.00
17053;DHT22;8643;48.824;11.422;2023-02-26T13:44:32;4.60;91.80
17053;DHT22;8643;48.824;11.422;2023-02-26T13:50:26;4.90;87.70
17053;DHT22;8643;48.824;11.422;2023-02-26T13:53:37;5.80;93.20
17053;DHT22;8643;48.824;11.422;2023-02-26T13:56:21;6.10;89.40
17053;DHT22;8643;48.824;11.422;2023-02-26T14:05:32;3.70;93.40
17053;DHT22;8643;48.824;11.422;2023-02-26T14:08:50;2.80;95.00
17053;DHT22;8643;48.824;11.422;2023-02-26T14:11:42;2.10;99.90
17053;DHT22;8643;48.824;11.422;2023-02-26T14:14:35;1.80;99.90
17053;DHT22;8643;48.824;11.422;2023-02-26T14:17:29;3.20;99.90
17053;DHT22;8643;48.824;11.422;2023-02-26T14:20:22;1.60;99.90
17053;DHT22;8643;48.824;11.422;2023-02-26T14:23:11;1.60;99.90
17053;DHT22;8643;48.824;11.422;2023-02-26T14:25:50;1.70;99.30
17053;DHT22;8643;48.824;11.422;2023-02-26T14:28:41;2.50;99.90
17053;DHT22;8643;48.824;11.422;2023-02-26T14:31:17;4.30;98.40
17053;DHT22;8643;48.824;11.422;2023-02-26T14:33:59;5.10;97.60
17053;DHT22;8643;48.824;11.422;2023-02-26T14:36:43;5.30;94.80
17053;DHT22;8643;48.824;11.422;2023-02-26T14:39:33;4.90;94.50
17053;DHT22;8643;48.824;11.422;2023-02-26T14:42:06;3.70;97.50
17053;DHT22;8643;48.824;11.422;2023-02-26T14:44:42;2.90;99.90
17053;DHT22;8643;48.824;11.422;2023-02-26T14:47:13;2.40;99.90
17053;DHT22;8643;48.824;11.422;2023-02-26T14:49:44;2.10;99.90
17053;DHT22;8643;48.824;11.422;2023-02-26T14:55:41;1.80;99.90
17053;DHT22;8643;48.824;11.422;2023-02-26T15:01:49;2.40;99.90
17053;DHT22;8643;48.824;11.422;2023-02-26T15:08:33;2.90;99.90
17053;DHT22;8643;48.824;11.422;2023-02-26T15:11:40;3.30;99.90
17053;DHT22;8643;48.824;11.422;2023-02-26T15:14:52;3.30;99.90
17053;DHT22;8643;48.824;11.422;2023-02-26T15:18:00;3.10;99.90
17053;DHT22;8643;48.824;11.422;2023-02-26T15:20:44;3.20;99.90
17053;DHT22;8643;48.824;11.422;2023-02-26T15:23:35;2.40;99.90
17053;DHT22;8643;48.824;11.422;2023-02-26T15:26:14;2.10;99.90
17053;DHT22;8643;48.824;11.422;2023-02-26T15:28:47;1.90;99.90
17053;DHT22;8643;48.824;11.422;2023-02-26T15:31:27;1.70;99.90
17053;DHT22;8643;48.824;11.422;2023-02-26T15:34:03;1.50;99.90
17053;DHT22;8643;48.824;11.422;2023-02-26T15:36:31;1.30;99.90
17053;DHT22;8643;48.824;11.422;2023-02-26T15:39:01;1.20;99.90
17053;DHT22;8643;48.824;11.422;2023-02-26T15:41:35;1.10;99.90
17053;DHT22;8643;48.824;11.422;2023-02-26T15:44:07;1.10;99.90
17053;DHT22;8643;48.824;11.422;2023-02-26T15:46:46;1.00;99.90
17053;DHT22;8643;48.824;11.422;2023-02-26T15:49:23;1.00;99.90
17053;DHT22;8643;48.824;11.422;2023-02-26T15:51:55;0.90;99.90
17053;DHT22;8643;48.824;11.422;2023-02-26T15:54:33;0.90;99.90
17053;DHT22;8643;48.824;11.422;2023-02-26T15:57:07;0.80;99.90
17053;DHT22;8643;48.824;11.422;2023-02-26T15:59:42;0.80;99.90
17053;DHT22;8643;48.824;11.422;2023-02-26T16:02:19;0.70;99.90
17053;DHT22;8643;48.824;11.422;2023-02-26T16:04:50;0.70;99.90
17053;DHT22;8643;48.824;11.422;2023-02-26T16:07:20;0.70;99.90
17053;DHT22;8643;48.824;11.422;2023-02-26T16:09:50;0.70;99.90
17053;DHT22;8643;48.824;11.422;2023-02-26T16:12:25;0.70;99.90
17053;DHT22;8643;48.824;11.422;2023-02-26T16:15:06;0.70;99.90
17053;DHT22;8643;48.824;11.422;2023-02-26T16:17:42;0.80;99.90
17053;DHT22;8643;48.824;11.422;2023-02-26T16:20:15;0.70;99.90
17053;DHT22;8643;48.824;11.422;2023-02-26T16:22:47;0.50;99.90
17053;DHT22;8643;48.824;11.422;2023-02-26T16:25:21;0.40;99.90
17053;DHT22;8643;48.824;11.422;2023-02-26T16:27:57;0.30;99.90
17053;DHT22;8643;48.824;11.422;2023-02-26T16:30:31;0.00;99.90
17053;DHT22;8643;48.824;11.422;2023-02-26T16:33:03;-0.20;99.90
17053;DHT22;8643;48.824;11.422;2023-02-26T16:35:41;-0.30;99.90
17053;DHT22;8643;48.824;11.422;2023-02-26T16:38:16;-0.40;99.90
17053;DHT22;8643;48.824;11.422;2023-02-26T16:40:55;-0.40;99.90
17053;DHT22;8643;48.824;11.422;2023-02-26T16:43:50;-0.40;99.90
17053;DHT22;8643;48.824;11.422;2023-02-26T16:46:36;-0.50;99.90
17053;DHT22;8643;48.824;11.422;2023-02-26T16:49:13;-0.60;99.90
17053;DHT22;8643;48.824;11.422;2023-02-26T16:51:47;-0.60;99.90
17053;DHT22;8643;48.824;11.422;2023-02-26T16:54:19;-0.70;99.90
17053;DHT22;8643;48.824;11.422;2023-02-26T16:56:54;-0.70;99.90
17053;DHT22;8643;48.824;11.422;2023-02-26T16:59:28;-0.70;99.90
17053;DHT22;8643;48.824;11.422;2023-02-26T17:02:02;-0.70;99.90
17053;DHT22;8643;48.824;11.422;2023-02-26T17:04:34;-0.70;99.90
17053;DHT22;8643;48.824;11.422;2023-02-26T17:07:15;-0.70;99.90
17053;DHT22;8643;48.824;11.422;2023-02-26T17:09:51;-0.80;99.90
17053;DHT22;8643;48.824;11.422;2023-02-26T17:12:29;-0.80;
17053;DHT22;8643;48.824;11.422;2023-02-26T17:15:16;-0.60;99.90
17053;DHT22;8643;48.824;11.422;2023-02-26T17:17:46;-0.90;99.90
17053;DHT22;8643;48.824;11.422;2023-02-26T17:20:16;-0.90;99.90
17053;DHT22;8643;48.824;11.422;2023-02-26T17:22:46;-0.90;99.90
17053;DHT22;8643;48.824;11.422;2023-02-26T17:25:16;-0.90;99.90
17053;DHT22;8643;48.824;11.422;2023-02-26T17:27:47;-0.90;99.90
17053;DHT22;8643;48.824;11.422;2023-02-26T17:30:18;-0.90;99.90
17053;DHT22;8643;48.824;11.422;2023-02-26T17:32:50;-0.90;99.90
17053;DHT22;8643;48.824;11.422;2023-02-26T17:35:18;-2.20;99.90
17053;DHT22;8643;48.824;11.422;2023-02-26T17:37:48;-1.00;99.90
17053;DHT22;8643;48.824;11.422;2023-02-26T17:40:20;-1.00;99.90
17053;DHT22;8643;48.824;11.422;2023-02-26T17:42:50;-2.30;99.90
17053;DHT22;8643;48.824;11.422;2023-02-26T17:45:19;-1.00;99.90